Time;durP1;ratioP1;P1;durP2;ratioP2;P2;SDS_P1;SDS_P2;PMS_P1;PMS_P2;Temp;Humidity;BMP_temperature;BMP_pressure;BME280_temperature;BME280_humidity;BME280_pressure;Samples;Min_cycle;Max_cycle;Signal;HPM_P1;HPM_P2
2024/01/07 00:02:05;;;;;;;6.97;4.40;;;2.20;99.90;;;;;;5033679;28;20376;-46
2024/01/07 00:04:34;;;;;;;10.70;4.63;;;2.20;99.90;;;;;;5033368;28;20033;-44
2024/01/07 00:06:59;;;;;;;8.80;5.03;;;2.20;99.90;;;;;;5033387;28;20033;-45
2024/01/07 00:09:25;;;;;;;15.10;5.30;;;2.20;99.90;;;;;;5033434;28;20032;-45
2024/01/07 00:11:51;;;;;;;9.30;4.75;;;2.20;99.90;;;;;;5033084;28;20038;-46
2024/01/07 00:14:17;;;;;;;8.45;4.63;;;2.20;99.90;;;;;;5033235;28;20363;-43
2024/01/07 00:16:43;;;;;;;8.98;4.85;;;2.20;99.90;;;;;;5045837;28;20021;-40
2024/01/07 00:19:08;;;;;;;8.98;5.28;;;2.10;99.90;;;;;;5053049;28;20031;-43
2024/01/07 00:21:34;;;;;;;10.25;5.53;;;2.10;99.90;;;;;;5052873;28;20501;-52
2024/01/07 00:24:00;;;;;;;12.32;5.65;;;2.00;99.90;;;;;;5052955;28;20036;-46
2024/01/07 00:26:26;;;;;;;10.23;5.43;;;2.00;99.90;;;;;;5053218;28;20020;-44
2024/01/07 00:28:51;;;;;;;8.80;5.00;;;2.00;99.90;;;;;;5045345;28;20037;-47
2024/01/07 00:31:17;;;;;;;13.48;6.13;;;2.00;99.90;;;;;;5033012;28;20072;-43
2024/01/07 00:33:43;;;;;;;12.52;6.00;;;2.10;99.90;;;;;;5032994;28;20027;-47
2024/01/07 00:36:08;;;;;;;12.32;5.65;;;2.10;99.90;;;;;;5032921;28;20037;-42
2024/01/07 00:38:34;;;;;;;10.38;5.00;;;2.10;99.90;;;;;;5031669;28;20029;-44
2024/01/07 00:40:59;;;;;;;11.95;6.28;;;2.10;99.90;;;;;;5032649;28;20104;-45
2024/01/07 00:43:25;;;;;;;13.80;6.25;;;2.10;99.90;;;;;;5032072;28;20060;-47
2024/01/07 00:45:51;;;;;;;11.40;5.88;;;2.10;99.90;;;;;;5032685;28;20041;-44
2024/01/07 00:48:16;;;;;;;11.90;5.85;;;2.20;99.90;;;;;;5032973;28;20030;-48
2024/01/07 00:50:42;;;;;;;9.90;5.65;;;2.10;99.90;;;;;;5033017;28;20366;-47
2024/01/07 00:53:08;;;;;;;14.55;7.32;;;2.10;99.90;;;;;;5032699;28;20021;-42
2024/01/07 00:55:35;;;;;;;12.23;6.35;;;2.00;99.90;;;;;;5032622;28;20024;-47
2024/01/07 00:58:01;;;;;;;11.23;5.40;;;1.90;99.90;;;;;;5032599;28;20052;-44
2024/01/07 01:00:28;;;;;;;10.25;6.10;;;1.80;99.90;;;;;;5032951;28;20638;-41
2024/01/07 01:02:54;;;;;;;11.75;6.13;;;1.80;99.90;;;;;;5032757;28;20470;-43
2024/01/07 01:05:19;;;;;;;10.48;5.65;;;1.80;99.90;;;;;;5032925;28;20030;-43
2024/01/07 01:07:45;;;;;;;13.15;6.15;;;1.80;99.90;;;;;;5032640;28;20112;-41
2024/01/07 01:10:11;;;;;;;13.40;6.05;;;1.80;99.90;;;;;;5032372;28;20112;-43
2024/01/07 01:12:36;;;;;;;10.85;5.75;;;1.80;99.90;;;;;;5031378;28;20033;-41
2024/01/07 01:15:02;;;;;;;12.55;6.07;;;1.80;99.90;;;;;;5032546;28;20030;-41
2024/01/07 01:17:29;;;;;;;12.10;6.68;;;1.80;99.90;;;;;;5051411;28;20044;-41
2024/01/07 01:19:54;;;;;;;11.52;6.03;;;1.80;99.90;;;;;;5044482;28;20034;-45
2024/01/07 01:22:20;;;;;;;9.93;6.15;;;1.80;99.90;;;;;;5032433;28;20414;-48
2024/01/07 01:24:46;;;;;;;11.68;6.07;;;1.80;99.90;;;;;;5032461;28;20433;-46
2024/01/07 01:27:14;;;;;;;12.40;6.05;;;1.80;99.90;;;;;;5032769;28;20025;-42
2024/01/07 01:29:39;;;;;;;9.48;5.70;;;1.80;99.90;;;;;;5032622;28;20473;-48
2024/01/07 01:32:06;;;;;;;10.05;5.78;;;1.80;99.90;;;;;;5032383;28;20024;-48
2024/01/07 01:34:32;;;;;;;12.20;5.82;;;1.80;99.90;;;;;;5032350;28;20025;-49
2024/01/07 01:36:57;;;;;;;11.40;5.80;;;1.80;99.90;;;;;;5031028;28;20084;-46
2024/01/07 01:39:23;;;;;;;10.55;6.03;;;1.80;99.90;;;;;;5032292;28;20026;-47
2024/01/07 01:41:49;;;;;;;13.02;6.20;;;1.80;99.90;;;;;;5032293;28;20112;-48
2024/01/07 01:44:14;;;;;;;10.05;5.43;;;1.90;99.90;;;;;;5032321;28;20044;-43
2024/01/07 01:46:40;;;;;;;11.30;5.95;;;1.90;99.90;;;;;;5032265;28;20025;-47
2024/01/07 01:49:07;;;;;;;11.43;6.53;;;1.90;99.90;;;;;;5030965;28;20033;-45
2024/01/07 01:51:34;;;;;;;10.98;5.45;;;1.80;99.90;;;;;;5032207;28;20018;-42
2024/01/07 01:54:00;;;;;;;8.75;5.50;;;1.90;99.90;;;;;;5034102;28;20496;-47
2024/01/07 01:56:28;;;;;;;9.98;5.75;;;1.90;99.90;;;;;;5035723;28;20037;-46
2024/01/07 01:58:53;;;;;;;9.55;4.88;;;1.90;99.90;;;;;;5035808;28;20513;-47
2024/01/07 02:01:19;;;;;;;11.90;6.03;;;2.00;99.90;;;;;;5035558;28;20029;-46
2024/01/07 02:03:46;;;;;;;12.52;5.30;;;1.90;99.90;;;;;;5035442;28;20030;-46
2024/01/07 02:06:12;;;;;;;9.13;4.93;;;1.90;99.90;;;;;;5034207;28;20021;-46
2024/01/07 02:08:39;;;;;;;9.73;4.90;;;1.90;99.90;;;;;;5035484;28;20513;-44
2024/01/07 02:11:15;;;;;;;9.30;5.32;;;1.90;99.90;;;;;;5035312;28;20105;-44
2024/01/07 02:13:41;;;;;;;12.60;6.32;;;1.90;99.90;;;;;;5035490;28;20044;-42
2024/01/07 02:16:07;;;;;;;9.60;6.00;;;2.00;99.90;;;;;;5043443;28;20025;-45
2024/01/07 02:18:33;;;;;;;9.88;5.20;;;1.90;99.90;;;;;;5055628;28;20025;-42
2024/01/07 02:20:58;;;;;;;8.80;5.30;;;2.00;99.90;;;;;;5055381;28;20040;-46
2024/01/07 02:23:24;;;;;;;13.23;5.32;;;2.00;99.90;;;;;;5055550;28;20056;-44
2024/01/07 02:25:49;;;;;;;13.68;6.63;;;2.00;99.90;;;;;;5055248;28;20094;-46
2024/01/07 02:28:15;;;;;;;9.18;5.88;;;2.00;99.90;;;;;;5044302;28;20029;-46
2024/01/07 02:30:41;;;;;;;13.65;5.95;;;2.00;99.90;;;;;;5035136;28;20064;-48
2024/01/07 02:33:06;;;;;;;11.75;6.22;;;1.90;99.90;;;;;;5035386;28;20385;-42
2024/01/07 02:35:32;;;;;;;14.98;7.00;;;1.90;99.90;;;;;;5035030;28;20017;-42
2024/01/07 02:37:58;;;;;;;14.95;5.72;;;1.80;99.90;;;;;;5035307;28;20113;-45
2024/01/07 02:40:23;;;;;;;11.77;6.18;;;1.90;99.90;;;;;;5034934;28;20037;-52
2024/01/07 02:42:49;;;;;;;12.00;6.53;;;1.70;99.90;;;;;;5034956;28;20438;-42
2024/01/07 02:45:15;;;;;;;15.50;7.28;;;1.80;99.90;;;;;;5034643;28;20367;-47
2024/01/07 02:47:40;;;;;;;12.57;6.07;;;1.90;99.90;;;;;;5034855;28;20071;-44
2024/01/07 02:50:06;;;;;;;14.27;7.22;;;1.90;99.90;;;;;;5034766;28;20181;-55
2024/01/07 02:52:32;;;;;;;14.23;6.93;;;1.90;99.90;;;;;;5034723;28;20025;-56
2024/01/07 02:55:01;;;;;;;15.50;7.53;;;1.90;99.90;;;;;;5034638;28;20371;-54
2024/01/07 02:57:27;;;;;;;14.05;7.32;;;1.80;99.90;;;;;;5034541;28;20029;-56
2024/01/07 02:59:53;;;;;;;14.10;6.75;;;1.80;99.90;;;;;;5034598;28;20033;-56
2024/01/07 03:02:18;;;;;;;17.48;8.40;;;1.80;99.90;;;;;;5034410;28;20030;-57
2024/01/07 03:04:44;;;;;;;17.42;8.20;;;1.80;99.90;;;;;;5033575;28;20064;-54
2024/01/07 03:07:10;;;;;;;17.02;7.90;;;1.60;99.90;;;;;;5034523;28;20034;-56
2024/01/07 03:09:35;;;;;;;15.48;7.53;;;1.60;99.90;;;;;;5034392;28;20474;-56
2024/01/07 03:12:01;;;;;;;13.88;7.32;;;1.70;99.90;;;;;;5034604;28;20389;-51
2024/01/07 03:14:26;;;;;;;16.88;8.10;;;1.70;99.90;;;;;;5034572;28;20029;-55
2024/01/07 03:16:52;;;;;;;18.33;8.80;;;1.70;99.90;;;;;;5048527;28;20064;-56
2024/01/07 03:19:18;;;;;;;16.40;7.50;;;1.80;99.90;;;;;;5043017;28;20033;-55
2024/01/07 03:21:44;;;;;;;16.30;8.88;;;1.90;99.90;;;;;;5034038;28;20050;-57
2024/01/07 03:24:10;;;;;;;18.98;8.57;;;1.80;99.90;;;;;;5034157;28;20073;-56
2024/01/07 03:26:36;;;;;;;14.70;6.50;;;1.80;99.90;;;;;;5034105;28;20029;-55
2024/01/07 03:29:02;;;;;;;17.58;7.47;;;1.80;99.90;;;;;;5034010;28;20036;-52
2024/01/07 03:31:28;;;;;;;15.55;7.05;;;1.80;99.90;;;;;;5033954;28;20082;-54
2024/01/07 03:33:54;;;;;;;12.45;6.10;;;1.90;99.90;;;;;;5034248;28;20429;-55
2024/01/07 03:36:20;;;;;;;17.40;7.25;;;2.00;99.90;;;;;;5034060;28;20100;-55
2024/01/07 03:38:46;;;;;;;17.42;7.65;;;1.80;99.90;;;;;;5033914;28;20064;-57
2024/01/07 03:41:18;;;;;;;16.00;6.93;;;1.70;99.90;;;;;;5033828;28;20163;-54
2024/01/07 03:43:46;;;;;;;16.67;7.40;;;1.60;99.90;;;;;;5034026;28;20021;-56
2024/01/07 03:46:11;;;;;;;14.93;7.05;;;1.60;99.90;;;;;;5033712;28;20552;-56
2024/01/07 03:48:37;;;;;;;14.05;7.47;;;1.50;99.90;;;;;;5033575;28;20029;-54
2024/01/07 03:51:03;;;;;;;13.68;6.43;;;1.60;99.90;;;;;;5032366;28;20021;-54
2024/01/07 03:53:28;;;;;;;13.60;7.30;;;1.60;99.90;;;;;;5033696;28;20477;-56
2024/01/07 03:55:54;;;;;;;16.35;6.40;;;1.60;99.90;;;;;;5033438;28;20018;-54
2024/01/07 03:58:20;;;;;;;17.25;7.07;;;1.60;99.90;;;;;;5033561;28;20075;-56
2024/01/07 04:00:45;;;;;;;12.95;6.35;;;1.60;99.90;;;;;;5033478;28;20104;-57
2024/01/07 04:03:11;;;;;;;12.45;6.50;;;1.50;99.90;;;;;;5033350;28;20017;-56
2024/01/07 04:05:37;;;;;;;15.88;7.15;;;1.50;99.90;;;;;;5033670;28;20024;-40
2024/01/07 04:08:03;;;;;;;17.05;7.65;;;1.60;99.90;;;;;;5033333;28;20041;-42
2024/01/07 04:10:29;;;;;;;14.60;8.02;;;1.60;99.90;;;;;;5033163;28;20033;-44
2024/01/07 04:12:55;;;;;;;19.02;7.78;;;1.70;99.90;;;;;;5033138;28;20044;-42
2024/01/07 04:15:21;;;;;;;20.50;7.88;;;1.60;99.90;;;;;;5034691;28;20030;-45
2024/01/07 04:17:46;;;;;;;16.83;7.88;;;1.60;99.90;;;;;;5052805;28;20272;-47
2024/01/07 04:20:15;;;;;;;17.45;7.82;;;1.70;99.90;;;;;;5051794;28;20559;-43
2024/01/07 04:22:41;;;;;;;16.13;7.50;;;1.60;99.90;;;;;;5052801;28;20052;-55
2024/01/07 04:25:10;;;;;;;18.15;8.00;;;1.70;99.90;;;;;;5053000;28;20029;-55
2024/01/07 04:27:37;;;;;;;16.10;7.22;;;1.80;99.90;;;;;;5039358;28;20072;-55
2024/01/07 04:30:03;;;;;;;19.98;7.95;;;1.70;99.90;;;;;;5033179;28;20033;-55
2024/01/07 04:32:29;;;;;;;18.60;7.93;;;1.70;99.90;;;;;;5032978;28;20482;-54
2024/01/07 04:34:56;;;;;;;17.52;8.23;;;1.70;99.90;;;;;;5032986;28;20032;-56
2024/01/07 04:37:21;;;;;;;18.63;8.82;;;1.60;99.90;;;;;;5031656;28;20014;-55
2024/01/07 04:39:47;;;;;;;18.25;8.75;;;1.70;99.90;;;;;;5031698;28;20040;-54
2024/01/07 04:42:13;;;;;;;15.57;7.88;;;1.80;99.90;;;;;;5033149;28;20083;-55
2024/01/07 04:44:39;;;;;;;20.17;8.38;;;1.70;99.90;;;;;;5032950;28;20025;-47
2024/01/07 04:47:04;;;;;;;20.98;8.13;;;1.60;99.90;;;;;;5032857;28;20028;-42
2024/01/07 04:49:30;;;;;;;25.00;10.30;;;1.60;99.90;;;;;;5032678;28;20470;-45
2024/01/07 04:51:55;;;;;;;17.02;8.90;;;1.60;99.90;;;;;;5032761;28;20131;-45
2024/01/07 04:54:21;;;;;;;20.88;8.10;;;1.70;99.90;;;;;;5032753;28;20025;-46
2024/01/07 04:56:47;;;;;;;18.17;7.60;;;1.70;99.90;;;;;;5032922;28;20018;-42
2024/01/07 04:59:12;;;;;;;22.35;8.02;;;1.80;99.90;;;;;;5032663;28;20045;-43
2024/01/07 05:01:38;;;;;;;15.73;8.13;;;1.90;99.90;;;;;;5032773;28;20057;-43
2024/01/07 05:04:03;;;;;;;19.95;7.97;;;2.00;99.90;;;;;;5031376;28;20037;-45
2024/01/07 05:06:29;;;;;;;18.80;7.60;;;1.90;99.90;;;;;;5032581;28;20128;-46
2024/01/07 05:08:55;;;;;;;15.73;7.38;;;2.00;99.90;;;;;;5032599;28;20028;-44
2024/01/07 05:11:20;;;;;;;19.02;7.75;;;2.00;99.90;;;;;;5032517;28;20394;-45
2024/01/07 05:13:46;;;;;;;14.77;7.85;;;1.90;99.90;;;;;;5032587;28;20097;-44
2024/01/07 05:16:21;;;;;;;14.00;7.53;;;1.90;99.90;;;;;;5041278;28;20057;-42
2024/01/07 05:18:48;;;;;;;13.63;7.40;;;1.90;99.90;;;;;;5037317;28;20540;-42
2024/01/07 05:21:15;;;;;;;11.20;5.90;;;1.90;99.90;;;;;;5031034;28;20050;-41
2024/01/07 05:23:41;;;;;;;13.95;6.53;;;1.80;99.90;;;;;;5032765;28;20382;-47
2024/01/07 05:26:07;;;;;;;16.35;7.70;;;1.70;99.90;;;;;;5032701;28;20033;-56
2024/01/07 05:28:33;;;;;;;14.93;6.68;;;1.80;99.90;;;;;;5034088;28;20106;-55
2024/01/07 05:30:59;;;;;;;13.55;7.07;;;1.80;99.90;;;;;;5036206;28;20132;-56
2024/01/07 05:33:25;;;;;;;12.70;6.53;;;1.70;99.90;;;;;;5036497;28;20113;-60
2024/01/07 05:35:51;;;;;;;13.95;7.30;;;1.70;99.90;;;;;;5034693;28;20029;-53
2024/01/07 05:38:16;;;;;;;13.25;6.28;;;1.70;99.90;;;;;;5036406;28;20021;-56
2024/01/07 05:40:42;;;;;;;10.73;6.13;;;1.80;99.90;;;;;;5036352;28;20075;-56
2024/01/07 05:43:07;;;;;;;15.13;7.53;;;1.80;99.90;;;;;;5036128;28;20022;-55
2024/01/07 05:45:33;;;;;;;12.27;6.22;;;1.80;99.90;;;;;;5035987;28;20060;-53
2024/01/07 05:47:59;;;;;;;15.98;7.72;;;1.90;99.90;;;;;;5035946;28;20033;-56
2024/01/07 05:50:24;;;;;;;12.27;6.03;;;1.90;99.90;;;;;;5035863;28;20530;-55
2024/01/07 05:52:50;;;;;;;12.57;6.25;;;1.70;99.90;;;;;;5036009;28;20077;-58
2024/01/07 05:55:15;;;;;;;13.63;6.78;;;1.80;99.90;;;;;;5035854;28;20028;-55
2024/01/07 05:57:43;;;;;;;15.02;6.82;;;1.80;99.90;;;;;;5035709;28;20021;-57
2024/01/07 06:00:10;;;;;;;13.43;6.87;;;1.80;99.90;;;;;;5035742;28;20022;-56
2024/01/07 06:02:36;;;;;;;13.18;6.53;;;1.80;99.90;;;;;;5035937;28;20756;-58
2024/01/07 06:05:03;;;;;;;13.75;7.10;;;1.90;99.90;;;;;;5035884;28;20029;-55
2024/01/07 06:07:29;;;;;;;17.35;7.45;;;1.90;99.90;;;;;;5035514;28;20026;-60
2024/01/07 06:09:55;;;;;;;13.45;7.43;;;1.90;99.90;;;;;;5035269;28;20026;-55
2024/01/07 06:12:20;;;;;;;13.23;6.53;;;1.90;99.90;;;;;;5035513;28;20022;-53
2024/01/07 06:14:46;;;;;;;15.05;7.78;;;2.00;99.90;;;;;;5035460;28;20097;-55
2024/01/07 06:17:12;;;;;;;15.95;6.47;;;2.00;99.90;;;;;;5052189;28;20047;-56
2024/01/07 06:19:37;;;;;;;13.00;6.43;;;2.00;99.90;;;;;;5055333;28;20036;-57
2024/01/07 06:22:03;;;;;;;14.65;7.22;;;2.00;99.90;;;;;;5055092;28;20163;-55
2024/01/07 06:24:29;;;;;;;17.10;6.78;;;1.90;99.90;;;;;;5055270;28;20551;-56
2024/01/07 06:26:55;;;;;;;16.58;6.95;;;1.80;99.90;;;;;;5039014;28;20075;-54
2024/01/07 06:29:20;;;;;;;17.85;7.55;;;1.70;99.90;;;;;;5035390;28;20385;-52
2024/01/07 06:31:46;;;;;;;13.18;6.75;;;1.60;99.90;;;;;;5035156;28;20032;-55
2024/01/07 06:34:15;;;;;;;14.38;6.55;;;1.60;99.90;;;;;;5035395;28;20029;-55
2024/01/07 06:36:43;;;;;;;14.52;6.85;;;1.70;99.90;;;;;;5035087;28;20093;-55
2024/01/07 06:39:09;;;;;;;16.08;6.82;;;1.70;99.90;;;;;;5034388;28;20041;-56
2024/01/07 06:41:35;;;;;;;13.45;6.43;;;1.80;99.90;;;;;;5034377;28;20104;-56
2024/01/07 06:44:02;;;;;;;13.07;6.78;;;1.80;99.90;;;;;;5033502;28;20482;-43
2024/01/07 06:46:28;;;;;;;15.05;7.50;;;1.60;99.90;;;;;;5034719;28;20029;-42
2024/01/07 06:48:53;;;;;;;10.10;6.05;;;1.60;99.90;;;;;;5034827;28;20394;-42
2024/01/07 06:51:19;;;;;;;13.45;6.20;;;1.70;99.90;;;;;;5034867;28;20025;-44
2024/01/07 06:53:45;;;;;;;12.65;6.10;;;1.70;99.90;;;;;;5034762;28;20461;-40
2024/01/07 06:56:10;;;;;;;13.88;6.45;;;1.80;99.90;;;;;;5034604;28;20022;-45
2024/01/07 06:58:36;;;;;;;10.50;5.68;;;1.70;99.90;;;;;;5034678;28;20017;-47
2024/01/07 07:01:02;;;;;;;10.48;5.95;;;1.70;99.90;;;;;;5034502;28;20048;-43
2024/01/07 07:03:28;;;;;;;12.45;6.18;;;1.70;99.90;;;;;;5034785;28;20441;-46
2024/01/07 07:05:53;;;;;;;16.55;5.95;;;1.90;99.90;;;;;;5034575;28;20029;-45
2024/01/07 07:08:19;;;;;;;12.15;5.45;;;1.90;99.90;;;;;;5034410;28;20500;-40
2024/01/07 07:10:45;;;;;;;14.50;5.70;;;1.90;99.90;;;;;;5034397;28;20017;-43
2024/01/07 07:13:11;;;;;;;12.27;5.93;;;1.80;99.90;;;;;;5034382;28;20024;-41
2024/01/07 07:15:37;;;;;;;13.15;6.68;;;1.80;99.90;;;;;;5038074;28;20032;-43
2024/01/07 07:18:03;;;;;;;15.35;7.15;;;1.70;99.90;;;;;;5036902;28;20474;-45
2024/01/07 07:20:29;;;;;;;13.15;5.93;;;1.70;99.90;;;;;;5034515;28;20481;-45
2024/01/07 07:22:54;;;;;;;10.90;6.32;;;1.60;99.90;;;;;;5032855;28;20111;-41
2024/01/07 07:25:20;;;;;;;12.57;6.22;;;1.60;99.90;;;;;;5034455;28;20508;-43
2024/01/07 07:27:46;;;;;;;11.15;6.03;;;1.70;99.90;;;;;;5034167;28;20032;-43
2024/01/07 07:30:12;;;;;;;17.35;5.90;;;1.60;99.90;;;;;;5033736;28;20029;-42
2024/01/07 07:32:41;;;;;;;16.73;6.30;;;1.60;99.90;;;;;;5034027;28;20033;-41
2024/01/07 07:35:07;;;;;;;13.73;6.32;;;1.70;99.90;;;;;;5032977;28;20367;-51
2024/01/07 07:37:33;;;;;;;12.13;5.97;;;1.70;99.90;;;;;;5033896;28;20029;-41
2024/01/07 07:39:58;;;;;;;13.65;5.47;;;1.60;99.90;;;;;;5033930;28;20563;-44
2024/01/07 07:42:24;;;;;;;12.25;5.90;;;1.60;99.90;;;;;;5033811;28;20021;-50
2024/01/07 07:44:50;;;;;;;12.32;6.15;;;1.60;99.90;;;;;;5033724;28;20501;-45
2024/01/07 07:47:16;;;;;;;10.05;5.75;;;1.60;99.90;;;;;;5033977;28;20025;-47
2024/01/07 07:49:41;;;;;;;14.80;6.15;;;1.60;99.90;;;;;;5033862;28;20018;-43
2024/01/07 07:52:08;;;;;;;14.82;6.30;;;1.60;99.90;;;;;;5033106;28;20075;-43
2024/01/07 07:54:34;;;;;;;10.00;5.60;;;1.60;99.90;;;;;;5033558;28;20026;-45
2024/01/07 07:57:00;;;;;;;12.63;5.85;;;1.60;99.90;;;;;;5033480;28;20044;-42
2024/01/07 07:59:25;;;;;;;15.80;5.55;;;1.60;99.90;;;;;;5033552;28;20064;-42
2024/01/07 08:01:51;;;;;;;14.25;5.45;;;1.60;99.90;;;;;;5033460;28;20033;-44
2024/01/07 08:04:16;;;;;;;12.23;5.30;;;1.70;99.90;;;;;;5033485;28;20072;-44
2024/01/07 08:06:42;;;;;;;10.40;5.05;;;1.70;99.90;;;;;;5033665;28;20104;-44
2024/01/07 08:09:08;;;;;;;11.68;5.55;;;1.70;99.90;;;;;;5033448;28;20033;-47
2024/01/07 08:11:34;;;;;;;9.82;5.30;;;1.60;99.90;;;;;;5033543;28;20502;-46
2024/01/07 08:14:01;;;;;;;11.85;5.60;;;1.50;99.90;;;;;;5033595;28;20045;-44
2024/01/07 08:16:27;;;;;;;11.73;5.13;;;1.60;99.90;;;;;;5033123;28;20025;-46
2024/01/07 08:18:56;;;;;;;17.80;7.03;;;1.60;99.90;;;;;;5031954;28;20029;-42
2024/01/07 08:21:23;;;;;;;12.60;7.05;;;1.60;99.90;;;;;;5033116;28;20502;-43
2024/01/07 08:23:48;;;;;;;14.45;6.13;;;1.50;99.90;;;;;;5033118;28;20025;-44
2024/01/07 08:26:23;;;;;;;11.18;6.07;;;1.50;99.90;;;;;;5032991;28;20394;-43
2024/01/07 08:28:48;;;;;;;15.18;6.63;;;1.50;99.90;;;;;;5031747;28;20076;-57
2024/01/07 08:31:14;;;;;;;9.50;5.93;;;1.50;99.90;;;;;;5033008;28;20053;-57
2024/01/07 08:33:40;;;;;;;11.77;5.97;;;1.50;99.90;;;;;;5031850;28;20031;-58
2024/01/07 08:36:06;;;;;;;12.38;5.07;;;1.60;99.90;;;;;;5033215;28;20433;-57
2024/01/07 08:38:32;;;;;;;12.77;6.32;;;1.60;99.90;;;;;;5032881;28;20083;-57
2024/01/07 08:40:57;;;;;;;11.43;6.82;;;1.60;99.90;;;;;;5032886;28;20026;-55
2024/01/07 08:43:24;;;;;;;12.45;6.00;;;1.50;99.90;;;;;;5032638;28;20501;-57
2024/01/07 08:45:50;;;;;;;9.85;5.57;;;1.50;99.90;;;;;;5032841;28;20028;-57
2024/01/07 08:48:16;;;;;;;9.45;4.95;;;1.40;99.90;;;;;;5031667;28;20112;-56
2024/01/07 08:50:42;;;;;;;12.88;5.75;;;1.40;99.90;;;;;;5032719;28;20065;-58
2024/01/07 08:53:08;;;;;;;11.93;5.43;;;1.40;99.90;;;;;;5032981;28;20389;-60
2024/01/07 08:55:33;;;;;;;15.48;5.60;;;1.30;99.90;;;;;;5032878;28;20056;-56
2024/01/07 08:58:00;;;;;;;8.02;5.15;;;1.40;99.90;;;;;;5032594;28;20044;-55
2024/01/07 09:00:26;;;;;;;9.10;5.13;;;1.50;99.90;;;;;;5032370;28;20029;-57
2024/01/07 09:02:55;;;;;;;8.23;5.13;;;1.40;99.90;;;;;;5031795;28;20395;-56
2024/01/07 09:05:21;;;;;;;8.45;4.65;;;1.40;99.90;;;;;;5036785;28;20079;-56
2024/01/07 09:07:46;;;;;;;9.10;3.97;;;1.30;99.90;;;;;;5036750;28;20077;-58
2024/01/07 09:10:13;;;;;;;8.40;4.53;;;1.30;99.90;;;;;;5036638;28;20444;-56
2024/01/07 09:12:39;;;;;;;9.65;5.05;;;1.30;99.90;;;;;;5036567;28;20478;-42
2024/01/07 09:15:08;;;;;;;11.70;5.25;;;1.30;99.90;;;;;;5036350;28;20028;-45
2024/01/07 09:17:37;;;;;;;8.82;4.55;;;1.30;99.90;;;;;;5035181;28;20026;-45
2024/01/07 09:20:07;;;;;;;9.60;5.15;;;1.30;99.90;;;;;;5036757;28;20086;-45
2024/01/07 09:22:34;;;;;;;7.35;4.72;;;1.30;99.90;;;;;;5036320;28;20521;-45
2024/01/07 09:25:03;;;;;;;8.75;4.03;;;1.30;99.90;;;;;;5036684;28;20359;-45
2024/01/07 09:27:29;;;;;;;8.98;4.78;;;1.40;99.90;;;;;;5036612;28;20472;-44
2024/01/07 09:29:55;;;;;;;9.00;5.38;;;1.40;99.90;;;;;;5036479;28;20032;-42
2024/01/07 09:32:20;;;;;;;7.13;4.85;;;1.50;99.90;;;;;;5035191;28;20017;-52
2024/01/07 09:34:46;;;;;;;8.65;5.10;;;1.50;99.90;;;;;;5036467;28;20078;-48
2024/01/07 09:37:11;;;;;;;13.98;4.20;;;1.50;99.90;;;;;;5036178;28;20496;-43
2024/01/07 09:39:41;;;;;;;10.38;4.90;;;1.50;99.90;;;;;;5036082;28;20029;-44
2024/01/07 09:42:17;;;;;;;13.57;6.07;;;1.60;99.90;;;;;;5036123;28;20033;-43
2024/01/07 09:44:44;;;;;;;9.38;5.10;;;1.60;99.90;;;;;;5036167;28;20440;-46
2024/01/07 09:47:14;;;;;;;10.68;4.78;;;1.50;99.90;;;;;;5036052;28;20389;-43
2024/01/07 09:49:41;;;;;;;7.28;4.32;;;1.50;99.90;;;;;;5035665;28;20026;-43
2024/01/07 09:52:08;;;;;;;12.55;5.10;;;1.50;99.90;;;;;;5035114;28;20574;-44
2024/01/07 09:54:37;;;;;;;16.92;5.35;;;1.40;99.90;;;;;;5036178;28;20425;-45
2024/01/07 09:57:08;;;;;;;7.65;4.18;;;1.30;99.90;;;;;;5035837;28;20037;-44
2024/01/07 09:59:36;;;;;;;6.75;4.60;;;1.40;99.90;;;;;;5035788;28;20033;-44
2024/01/07 10:02:02;;;;;;;;;;;1.50;99.90;;;;;;5036466;28;20025;-44
2024/01/07 10:04:28;;;;;;;5.15;3.10;;;1.60;99.90;;;;;;5035900;28;20361;-42
2024/01/07 10:06:54;;;;;;;8.02;3.45;;;1.70;99.90;;;;;;5035438;28;20079;-45
2024/01/07 10:09:25;;;;;;;6.90;3.47;;;1.60;99.90;;;;;;5034320;28;20025;-39
2024/01/07 10:11:51;;;;;;;8.95;4.10;;;1.60;99.90;;;;;;5035772;28;20026;-44
2024/01/07 10:14:16;;;;;;;5.05;3.22;;;1.50;99.90;;;;;;5035237;28;20482;-45
2024/01/07 10:16:42;;;;;;;7.18;3.55;;;1.50;99.90;;;;;;5035691;28;20446;-40
2024/01/07 10:19:08;;;;;;;8.45;3.60;;;1.50;99.90;;;;;;5035719;28;20446;-44
2024/01/07 10:21:34;;;;;;;11.30;3.88;;;1.60;99.90;;;;;;5035180;28;20136;-41
2024/01/07 10:24:13;;;;;;;6.93;3.35;;;1.60;99.90;;;;;;5035178;28;20102;-40
2024/01/07 10:26:40;;;;;;;6.00;3.45;;;1.60;99.90;;;;;;5035515;28;20489;-43
2024/01/07 10:29:07;;;;;;;8.25;3.20;;;1.70;99.90;;;;;;5035133;28;20095;-44
2024/01/07 10:31:34;;;;;;;3.45;2.80;;;1.80;99.90;;;;;;5035170;28;20013;-46
2024/01/07 10:33:59;;;;;;;8.98;2.80;;;1.80;99.90;;;;;;5035174;28;20104;-42
2024/01/07 10:36:25;;;;;;;4.72;2.78;;;1.80;99.90;;;;;;5035281;28;20540;-40
2024/01/07 10:38:52;;;;;;;3.28;2.45;;;1.80;99.90;;;;;;5034998;28;20025;-54
2024/01/07 10:41:19;;;;;;;5.18;2.72;;;1.80;99.90;;;;;;5033532;28;20091;-55
2024/01/07 10:43:48;;;;;;;7.78;2.95;;;1.60;99.90;;;;;;5035254;28;20386;-53
2024/01/07 10:46:15;;;;;;;6.97;2.97;;;1.50;99.90;;;;;;5034957;28;20025;-55
2024/01/07 10:49:04;;;;;;;5.05;2.45;;;1.50;99.90;;;;;;5035073;28;20478;-54
2024/01/07 10:51:34;;;;;;;3.85;2.45;;;1.50;99.90;;;;;;5034906;28;20044;-55
2024/01/07 10:54:00;;;;;;;8.68;3.00;;;1.50;99.90;;;;;;5034838;28;20025;-54
2024/01/07 10:56:35;;;;;;;3.00;2.33;;;1.30;99.90;;;;;;5033353;28;20021;-54
2024/01/07 10:59:03;;;;;;;5.60;2.33;;;1.30;99.90;;;;;;5034560;28;20446;-54
2024/01/07 11:01:29;;;;;;;3.40;2.55;;;1.50;99.90;;;;;;5034623;28;20100;-55
2024/01/07 11:04:15;;;;;;;2.25;1.95;;;1.70;99.90;;;;;;5034432;28;20517;-53
2024/01/07 11:06:55;;;;;;;5.47;2.60;;;1.70;99.90;;;;;;5034854;28;20097;-53
2024/01/07 11:09:43;;;;;;;5.53;2.63;;;1.70;99.90;;;;;;5034453;28;20116;-54
2024/01/07 11:12:11;;;;;;;3.90;2.72;;;1.70;99.90;;;;;;5034414;28;20484;-55
2024/01/07 11:14:44;;;;;;;4.60;1.90;;;1.70;99.90;;;;;;5034233;28;20022;-54
2024/01/07 11:17:11;;;;;;;1.75;1.52;;;1.80;99.90;;;;;;5034345;28;20497;-56
2024/01/07 11:19:38;;;;;;;4.07;1.95;;;1.70;99.90;;;;;;5034104;28;20033;-55
2024/01/07 11:22:28;;;;;;;3.80;2.33;;;1.80;99.90;;;;;;5034117;28;20506;-56
2024/01/07 11:25:01;;;;;;;2.63;1.77;;;1.90;99.90;;;;;;5034033;28;20478;-55
2024/01/07 11:27:33;;;;;;;4.20;1.90;;;1.90;99.90;;;;;;5033701;28;20025;-54
2024/01/07 11:30:20;;;;;;;2.50;1.88;;;2.00;99.90;;;;;;5034191;28;20502;-56
2024/01/07 11:32:46;;;;;;;2.60;1.98;;;2.00;99.90;;;;;;5033837;28;20014;-55
2024/01/07 11:35:13;;;;;;;3.22;2.03;;;2.00;99.90;;;;;;5034224;28;20028;-54
2024/01/07 11:37:38;;;;;;;3.55;1.83;;;2.00;99.90;;;;;;5033853;28;20385;-56
2024/01/07 11:40:06;;;;;;;3.72;1.95;;;2.10;99.90;;;;;;5034155;28;20100;-55
2024/01/07 11:42:32;;;;;;;5.57;2.00;;;2.10;99.90;;;;;;5033675;28;20083;-55
2024/01/07 11:44:58;;;;;;;8.52;1.95;;;2.00;99.90;;;;;;5034085;28;20475;-56
2024/01/07 11:47:27;;;;;;;7.47;2.67;;;2.00;99.90;;;;;;5034066;28;20025;-57
2024/01/07 11:49:53;;;;;;;3.03;1.85;;;2.10;99.90;;;;;;5033748;28;20151;-55
2024/01/07 11:52:20;;;;;;;4.18;2.17;;;2.20;99.90;;;;;;5033659;28;20021;-61
2024/01/07 11:54:47;;;;;;;1.77;1.40;;;2.20;99.90;;;;;;5033613;28;20470;-55
2024/01/07 11:57:13;;;;;;;1.83;1.50;;;2.10;99.90;;;;;;5033746;28;20371;-56
2024/01/07 11:59:39;;;;;;;4.75;1.92;;;2.30;99.90;;;;;;5033765;28;20535;-54
2024/01/07 12:02:05;;;;;;;1.55;1.45;;;2.50;99.90;;;;;;5033717;28;20018;-57
2024/01/07 12:04:34;;;;;;;2.80;1.55;;;2.50;99.90;;;;;;5033325;28;20103;-61
2024/01/07 12:07:01;;;;;;;2.85;1.67;;;2.50;99.90;;;;;;5033267;28;20036;-56
2024/01/07 12:09:27;;;;;;;5.47;1.77;;;2.50;99.90;;;;;;5032370;28;20485;-58
2024/01/07 12:11:53;;;;;;;1.60;1.30;;;2.50;99.90;;;;;;5033210;28;20026;-57
2024/01/07 12:14:20;;;;;;;1.30;1.08;;;2.50;99.90;;;;;;5033217;28;20021;-55
2024/01/07 12:16:46;;;;;;;7.72;1.45;;;2.50;99.90;;;;;;5046616;28;20059;-56
2024/01/07 12:19:12;;;;;;;1.58;1.30;;;2.40;99.90;;;;;;5053135;28;20021;-56
2024/01/07 12:21:38;;;;;;;7.20;1.40;;;2.30;99.90;;;;;;5052880;28;20051;-55
2024/01/07 12:24:04;;;;;;;2.55;1.73;;;2.30;99.90;;;;;;5035532;28;20466;-55
2024/01/07 12:26:30;;;;;;;4.55;1.35;;;2.30;99.90;;;;;;5033335;28;20543;-55
2024/01/07 12:28:59;;;;;;;3.70;1.05;;;2.30;99.90;;;;;;5033192;28;20382;-55
2024/01/07 12:31:35;;;;;;;2.20;1.20;;;2.20;99.90;;;;;;5032997;28;20022;-53
2024/01/07 12:34:02;;;;;;;1.92;1.20;;;2.20;99.90;;;;;;5033063;28;20025;-55
2024/01/07 12:36:30;;;;;;;4.35;0.85;;;2.20;99.90;;;;;;5032848;28;20021;-54
2024/01/07 12:38:57;;;;;;;1.20;1.00;;;2.10;99.90;;;;;;5032763;28;20068;-54
2024/01/07 12:41:23;;;;;;;1.33;1.10;;;2.20;99.90;;;;;;5032778;28;20025;-54
2024/01/07 12:43:50;;;;;;;1.08;0.98;;;2.20;99.90;;;;;;5032674;28;20108;-57
2024/01/07 12:46:15;;;;;;;3.03;1.17;;;2.10;99.90;;;;;;5031571;28;20517;-54
2024/01/07 12:48:41;;;;;;;3.58;1.08;;;2.10;99.90;;;;;;5032992;28;20052;-49